createdAt,value
2023-04-16T00:01:50.490Z,98836.53
2023-04-16T00:04:24.737Z,98838.56
2023-04-16T00:06:57.502Z,98838.47
2023-04-16T00:09:30.469Z,98845.97
2023-04-16T00:12:04.024Z,98838.00
2023-04-16T00:14:36.807Z,98836.63
2023-04-16T00:17:09.749Z,98837.88
2023-04-16T00:19:44.012Z,98841.28
2023-04-16T00:22:17.318Z,98846.13
2023-04-16T00:24:50.259Z,98841.94
2023-04-16T00:27:23.016Z,98838.13
2023-04-16T00:29:56.143Z,98846.22
2023-04-16T00:32:29.387Z,98844.38
2023-04-16T00:35:04.088Z,98843.69
2023-04-16T00:37:36.978Z,98848.91
2023-04-16T00:40:10.254Z,98849.91
2023-04-16T00:42:43.067Z,98845.81
2023-04-16T00:45:16.034Z,98843.81
2023-04-16T00:47:48.936Z,98848.97
2023-04-16T00:50:23.439Z,98845.19
2023-04-16T00:52:57.579Z,98840.78
2023-04-16T00:55:30.788Z,98842.00
2023-04-16T00:58:04.552Z,98842.38
2023-04-16T01:00:37.469Z,98845.03
2023-04-16T01:03:10.750Z,98849.38
2023-04-16T01:05:46.037Z,98835.00
2023-04-16T01:08:19.659Z,98840.91
2023-04-16T01:10:52.561Z,98839.47
2023-04-16T01:13:25.567Z,98843.22
2023-04-16T01:15:58.620Z,98843.72
2023-04-16T01:18:31.524Z,98848.53
2023-04-16T01:21:06.697Z,98855.19
2023-04-16T01:23:39.612Z,98853.06
2023-04-16T01:26:12.391Z,98853.38
2023-04-16T01:28:45.330Z,98860.53
2023-04-16T01:31:18.359Z,98859.00
2023-04-16T01:34:09.751Z,98861.25
2023-04-16T01:36:44.290Z,98863.19
2023-04-16T01:39:19.303Z,98863.59
2023-04-16T01:41:52.143Z,98866.09
2023-04-16T01:44:25.578Z,98872.69
2023-04-16T01:46:58.554Z,98864.56
2023-04-16T01:49:31.687Z,98870.44
2023-04-16T01:52:08.378Z,98873.13
2023-04-16T01:54:41.451Z,98871.50
2023-04-16T01:57:14.349Z,98867.44
2023-04-16T01:59:47.337Z,98868.44
2023-04-16T02:02:20.407Z,98872.25
2023-04-16T02:04:53.566Z,98870.03
2023-04-16T02:07:28.232Z,98868.09
2023-04-16T02:10:01.349Z,98871.53
2023-04-16T02:12:34.324Z,98865.66
2023-04-16T02:15:08.555Z,98867.72
2023-04-16T02:17:42.080Z,98870.19
2023-04-16T02:20:18.566Z,98870.44
2023-04-16T02:23:01.080Z,98869.28
2023-04-16T02:25:34.452Z,98865.97
2023-04-16T02:28:08.660Z,98870.78
2023-04-16T02:30:45.998Z,98878.09
2023-04-16T02:33:21.255Z,98876.00
2023-04-16T02:36:02.019Z,98877.94
2023-04-16T02:38:37.492Z,98872.81
2023-04-16T02:41:10.515Z,98875.59
2023-04-16T02:43:43.391Z,98870.06
2023-04-16T02:46:16.268Z,98876.75
2023-04-16T02:48:49.340Z,98867.13
2023-04-16T02:51:22.029Z,98877.53
2023-04-16T02:53:56.158Z,98875.78
2023-04-16T02:56:28.893Z,98879.13
2023-04-16T02:59:01.781Z,98883.16
2023-04-16T03:01:35.033Z,98881.09
2023-04-16T03:04:07.915Z,98886.47
2023-04-16T03:06:40.858Z,98888.06
2023-04-16T03:09:16.098Z,98880.72
2023-04-16T03:11:48.900Z,98892.28
2023-04-16T03:14:21.836Z,98894.59
2023-04-16T03:16:54.983Z,98888.34
2023-04-16T03:19:27.833Z,98888.72
2023-04-16T03:22:02.754Z,98884.25
2023-04-16T03:24:38.196Z,98882.91
2023-04-16T03:27:11.157Z,98879.94
2023-04-16T03:29:43.982Z,98881.72
2023-04-16T03:32:17.638Z,98890.06
2023-04-16T03:34:50.834Z,98885.44
2023-04-16T03:37:24.046Z,98886.00
2023-04-16T03:39:58.909Z,98887.75
2023-04-16T03:42:31.942Z,98891.72
2023-04-16T03:45:05.532Z,98886.16
2023-04-16T03:47:38.681Z,98898.16
2023-04-16T03:50:13.425Z,98897.97
2023-04-16T03:52:49.372Z,98894.47
2023-04-16T03:55:25.100Z,98887.88
2023-04-16T03:57:58.385Z,98890.97
2023-04-16T04:00:32.096Z,98890.41
2023-04-16T04:03:14.174Z,98898.78
2023-04-16T04:05:47.508Z,98895.75
2023-04-16T04:08:24.501Z,98892.13
2023-04-16T04:10:59.383Z,98897.78
2023-04-16T04:13:32.622Z,98895.66
2023-04-16T04:16:06.622Z,98895.75
2023-04-16T04:18:39.971Z,98900.09
2023-04-16T04:21:13.894Z,98903.63
2023-04-16T04:23:49.993Z,98912.09
2023-04-16T04:26:25.022Z,98909.72
2023-04-16T04:28:59.069Z,98913.31
2023-04-16T04:31:31.948Z,98913.66
2023-04-16T04:34:05.069Z,98912.09
2023-04-16T04:36:38.519Z,98916.78
2023-04-16T04:39:11.661Z,98908.88
2023-04-16T04:41:48.684Z,98912.75
2023-04-16T04:44:21.954Z,98921.53
2023-04-16T04:46:55.223Z,98924.31
2023-04-16T04:49:28.360Z,98933.25
2023-04-16T04:52:01.355Z,98936.53
2023-04-16T04:54:34.451Z,98926.41
2023-04-16T04:57:08.888Z,98935.56
2023-04-16T04:59:42.122Z,98931.94
2023-04-16T05:02:16.717Z,98927.56
2023-04-16T05:04:49.857Z,98938.34
2023-04-16T05:07:23.228Z,98937.50
2023-04-16T05:09:56.059Z,98939.13
2023-04-16T05:12:30.278Z,98931.47
2023-04-16T05:15:03.191Z,98939.69
2023-04-16T05:17:36.586Z,98945.69
2023-04-16T05:20:10.489Z,98940.63
2023-04-16T05:22:43.331Z,98951.78
2023-04-16T05:25:17.517Z,98949.34
2023-04-16T05:27:51.803Z,98956.38
2023-04-16T05:30:24.643Z,98953.72
2023-04-16T05:32:57.528Z,98956.75
2023-04-16T05:35:30.309Z,98950.78
2023-04-16T05:38:04.331Z,98950.09
2023-04-16T05:40:37.684Z,98963.00
2023-04-16T05:43:12.140Z,98963.91
2023-04-16T05:45:44.940Z,98966.78
2023-04-16T05:48:17.736Z,98968.34
2023-04-16T05:50:50.789Z,98976.50
2023-04-16T05:53:23.989Z,98974.66
2023-04-16T05:55:56.756Z,98978.63
2023-04-16T05:58:30.947Z,98981.81
2023-04-16T06:01:04.646Z,98987.72
2023-04-16T06:03:37.574Z,98992.06
2023-04-16T06:06:10.721Z,98990.31
2023-04-16T06:08:43.647Z,98990.91
2023-04-16T06:11:16.736Z,98991.66
2023-04-16T06:13:51.060Z,99002.69
2023-04-16T06:16:24.063Z,99000.22
2023-04-16T06:18:56.896Z,98993.66
2023-04-16T06:21:29.948Z,99001.81
2023-04-16T06:24:02.726Z,99004.44
2023-04-16T06:26:35.446Z,99008.66
2023-04-16T06:29:09.699Z,99002.63
2023-04-16T06:31:42.792Z,99004.00
2023-04-16T06:34:16.013Z,99016.78
2023-04-16T06:36:48.750Z,99008.09
2023-04-16T06:39:22.110Z,99012.06
2023-04-16T06:41:54.951Z,99013.13
2023-04-16T06:44:29.177Z,99014.75
2023-04-16T06:47:02.164Z,99018.53
2023-04-16T06:49:35.045Z,99020.41
2023-04-16T06:52:08.085Z,99014.84
2023-04-16T06:54:40.966Z,99029.88
2023-04-16T06:57:13.703Z,99027.75
2023-04-16T06:59:47.800Z,99030.06
2023-04-16T07:02:20.879Z,99029.75
2023-04-16T07:04:53.641Z,99032.25
2023-04-16T07:07:26.424Z,99038.03
2023-04-16T07:09:59.928Z,99035.31
2023-04-16T07:12:33.926Z,99035.16
2023-04-16T07:15:12.472Z,99039.06
2023-04-16T07:17:45.248Z,99037.16
2023-04-16T07:20:18.161Z,99040.00
2023-04-16T07:22:51.227Z,99038.94
2023-04-16T07:25:24.189Z,99050.38
2023-04-16T07:27:57.010Z,99054.06
2023-04-16T07:30:34.239Z,99059.16
2023-04-16T07:33:07.135Z,99058.25
2023-04-16T07:35:39.924Z,99063.22
2023-04-16T07:38:12.628Z,99069.94
2023-04-16T07:40:45.442Z,99073.69
2023-04-16T07:43:18.219Z,99071.75
2023-04-16T07:45:52.336Z,99067.59
2023-04-16T07:48:25.516Z,99075.00
2023-04-16T07:50:58.823Z,99075.47
2023-04-16T07:53:31.769Z,99074.16
2023-04-16T07:56:04.669Z,99083.84
2023-04-16T07:58:37.486Z,99082.06
2023-04-16T08:01:11.815Z,99088.09
2023-04-16T08:03:44.868Z,99102.22
2023-04-16T08:06:17.948Z,99100.75
2023-04-16T08:08:50.862Z,99112.25
2023-04-16T08:11:24.597Z,99107.31
2023-04-16T08:13:57.603Z,99108.63
2023-04-16T08:16:33.019Z,99120.75
2023-04-16T08:19:05.941Z,99127.91
2023-04-16T08:21:38.777Z,99125.53
2023-04-16T08:24:12.021Z,99130.44
2023-04-16T08:26:44.835Z,99129.13
2023-04-16T08:29:18.597Z,99132.81
2023-04-16T08:31:53.066Z,99134.44
2023-04-16T08:34:26.196Z,99129.03
2023-04-16T08:36:59.005Z,99140.31
2023-04-16T08:39:31.801Z,99129.13
2023-04-16T08:42:06.960Z,99137.97
2023-04-16T08:44:48.917Z,99133.00
2023-04-16T08:47:26.564Z,99131.91
2023-04-16T08:50:00.301Z,99127.41
2023-04-16T08:52:33.791Z,99141.16
2023-04-16T08:55:13.527Z,99146.72
2023-04-16T08:57:54.558Z,99144.16
2023-04-16T09:00:28.082Z,99141.91
2023-04-16T09:03:03.548Z,99142.22
2023-04-16T09:05:37.020Z,99154.00
2023-04-16T09:08:10.274Z,99147.28
2023-04-16T09:10:44.447Z,99150.41
2023-04-16T09:13:20.470Z,99163.16
2023-04-16T09:15:54.218Z,99155.38
2023-04-16T09:18:29.264Z,99162.84
2023-04-16T09:21:02.792Z,99170.69
2023-04-16T09:23:36.218Z,99162.38
2023-04-16T09:26:09.133Z,99181.13
2023-04-16T09:28:43.852Z,99187.44
2023-04-16T09:31:18.383Z,99187.84
2023-04-16T09:34:06.132Z,99198.97
2023-04-16T09:36:38.972Z,99200.81
2023-04-16T09:39:20.213Z,99194.88
2023-04-16T09:41:54.747Z,99197.53
2023-04-16T09:44:36.780Z,99208.53
2023-04-16T09:47:10.949Z,99214.19
2023-04-16T09:49:47.092Z,99216.41
2023-04-16T09:52:21.642Z,99214.78
2023-04-16T09:54:55.669Z,99222.44
2023-04-16T09:57:28.471Z,99225.13
2023-04-16T10:00:04.380Z,99218.97
2023-04-16T10:02:41.925Z,99228.53
2023-04-16T10:05:18.677Z,99223.16
2023-04-16T10:07:52.912Z,99235.06
2023-04-16T10:10:26.398Z,99229.84
2023-04-16T10:12:59.299Z,99240.69
2023-04-16T10:15:32.289Z,99241.72
2023-04-16T10:18:06.330Z,99251.00
2023-04-16T10:20:40.740Z,99254.50
2023-04-16T10:23:14.005Z,99249.28
2023-04-16T10:25:49.012Z,99255.88
2023-04-16T10:28:22.063Z,99260.25
2023-04-16T10:30:57.056Z,99259.69
2023-04-16T10:33:32.521Z,99263.97
2023-04-16T10:36:12.061Z,99267.91
2023-04-16T10:38:48.111Z,99268.91
2023-04-16T10:41:21.627Z,99276.94
2023-04-16T10:43:54.847Z,99264.31
2023-04-16T10:46:31.784Z,99267.81
2023-04-16T10:49:15.082Z,99274.47
2023-04-16T10:51:56.686Z,99270.75
2023-04-16T10:54:31.232Z,99274.19
2023-04-16T10:57:06.384Z,99270.63
2023-04-16T10:59:40.423Z,99275.91
2023-04-16T11:02:15.731Z,99281.56
2023-04-16T11:04:50.156Z,99281.03
2023-04-16T11:07:34.555Z,99287.72
2023-04-16T11:10:08.557Z,99279.41
2023-04-16T11:12:44.739Z,99283.84
2023-04-16T11:15:19.394Z,99280.25
2023-04-16T11:17:52.998Z,99284.00
2023-04-16T11:20:27.677Z,99287.56
2023-04-16T11:23:02.127Z,99290.63
2023-04-16T11:25:35.005Z,99297.81
2023-04-16T11:28:07.876Z,99283.94
2023-04-16T11:30:41.565Z,99291.56
2023-04-16T11:33:14.493Z,99291.97
2023-04-16T11:35:57.946Z,99294.75
2023-04-16T11:38:37.089Z,99298.31
2023-04-16T11:41:11.031Z,99297.44
2023-04-16T11:43:44.086Z,99299.84
2023-04-16T11:46:26.764Z,99300.09
2023-04-16T11:49:00.030Z,99309.53
2023-04-16T11:51:33.129Z,99305.84
2023-04-16T11:54:10.441Z,99307.63
2023-04-16T11:56:47.804Z,99307.50
2023-04-16T11:59:23.017Z,99302.25
2023-04-16T12:01:57.077Z,99314.28
2023-04-16T12:04:30.389Z,99298.44
2023-04-16T12:07:11.351Z,99305.34
2023-04-16T12:09:47.799Z,99307.19
2023-04-16T12:12:28.583Z,99311.31
2023-04-16T12:15:03.690Z,99300.94
2023-04-16T12:17:37.755Z,99305.25
2023-04-16T12:20:12.535Z,99306.03
2023-04-16T12:22:47.683Z,99313.28
2023-04-16T12:25:22.104Z,99315.38
2023-04-16T12:27:56.371Z,99319.38
2023-04-16T12:30:30.831Z,99314.50
2023-04-16T12:33:17.716Z,99322.53
2023-04-16T12:35:51.101Z,99313.34
2023-04-16T12:38:25.527Z,99318.06
2023-04-16T12:41:02.404Z,99319.72
2023-04-16T12:43:35.499Z,99323.16
2023-04-16T12:46:08.340Z,99320.38
2023-04-16T12:48:41.612Z,99322.59
2023-04-16T12:51:14.736Z,99327.84
2023-04-16T12:53:47.818Z,99320.66
2023-04-16T12:56:22.534Z,99326.50
2023-04-16T12:58:55.941Z,99330.94
2023-04-16T13:01:29.126Z,99329.75
2023-04-16T13:04:02.086Z,99326.84
2023-04-16T13:06:36.783Z,99329.63
2023-04-16T13:09:10.396Z,99332.72
2023-04-16T13:11:44.834Z,99342.25
2023-04-16T13:14:18.086Z,99332.28
2023-04-16T13:16:50.936Z,99336.88
2023-04-16T13:19:23.828Z,99329.47
2023-04-16T13:21:56.812Z,99333.94
2023-04-16T13:24:29.614Z,99331.59
2023-04-16T13:27:03.679Z,99333.34
2023-04-16T13:29:37.126Z,99335.47
2023-04-16T13:32:09.872Z,99336.56
2023-04-16T13:34:42.781Z,99335.66
2023-04-16T13:37:15.567Z,99333.88
2023-04-16T13:39:48.345Z,99338.22
2023-04-16T13:42:22.440Z,99337.72
2023-04-16T13:44:55.597Z,99348.81
2023-04-16T13:47:28.443Z,99341.63
2023-04-16T13:50:01.447Z,99345.56
2023-04-16T13:52:34.374Z,99350.84
2023-04-16T13:55:09.490Z,99348.38
2023-04-16T13:57:43.918Z,99352.88
2023-04-16T14:00:18.147Z,99348.22
2023-04-16T14:02:51.352Z,99347.28
2023-04-16T14:05:26.996Z,99354.41
2023-04-16T14:08:00.192Z,99342.19
2023-04-16T14:10:33.436Z,99354.72
2023-04-16T14:13:07.633Z,99351.81
2023-04-16T14:15:40.507Z,99346.63
2023-04-16T14:18:13.301Z,99357.38
2023-04-16T14:20:46.111Z,99354.06
2023-04-16T14:23:18.911Z,99359.81
2023-04-16T14:25:51.700Z,99360.56
2023-04-16T14:28:26.026Z,99360.28
2023-04-16T14:30:59.018Z,99350.44
2023-04-16T14:33:32.371Z,99353.78
2023-04-16T14:36:05.839Z,99351.25
2023-04-16T14:38:38.906Z,99350.06
2023-04-16T14:41:12.517Z,99365.34
2023-04-16T14:43:46.764Z,99362.09
2023-04-16T14:46:19.803Z,99359.66
2023-04-16T14:48:52.749Z,99356.13
2023-04-16T14:51:26.443Z,99356.63
2023-04-16T14:53:59.373Z,99356.38
2023-04-16T14:56:32.293Z,99351.63
2023-04-16T14:59:06.851Z,99358.94
2023-04-16T15:01:41.263Z,99346.63
2023-04-16T15:04:14.478Z,99351.69
2023-04-16T15:06:47.508Z,99350.63
2023-04-16T15:09:20.656Z,99351.69
2023-04-16T15:11:53.463Z,99356.50
2023-04-16T15:14:27.753Z,99356.31
2023-04-16T15:17:00.901Z,99353.22
2023-04-16T15:19:33.783Z,99355.91
2023-04-16T15:22:06.743Z,99360.19
2023-04-16T15:24:39.561Z,99364.53
2023-04-16T15:27:13.914Z,99374.78
2023-04-16T15:29:49.497Z,99365.19
2023-04-16T15:32:22.466Z,99362.09
2023-04-16T15:34:55.400Z,99362.94
2023-04-16T15:37:28.239Z,99361.84
2023-04-16T15:40:01.173Z,99373.94
2023-04-16T15:42:34.057Z,99368.34
2023-04-16T15:45:08.875Z,99374.97
2023-04-16T15:47:42.386Z,99377.03
2023-04-16T15:50:15.349Z,99384.56
2023-04-16T15:52:48.698Z,99379.56
2023-04-16T15:55:21.588Z,99384.13
2023-04-16T15:57:54.433Z,99385.56
2023-04-16T16:00:28.956Z,99386.09
2023-04-16T16:03:01.965Z,99388.25
2023-04-16T16:05:35.364Z,99399.53
2023-04-16T16:08:08.193Z,99397.91
2023-04-16T16:10:41.258Z,99393.66
2023-04-16T16:13:17.969Z,99405.72
2023-04-16T16:15:52.125Z,99411.63
2023-04-16T16:18:24.933Z,99415.66
2023-04-16T16:20:59.003Z,99410.72
2023-04-16T16:23:31.905Z,99411.94
2023-04-16T16:26:06.099Z,99413.63
2023-04-16T16:28:38.937Z,99409.81
2023-04-16T16:31:13.506Z,99412.41
2023-04-16T16:33:46.395Z,99408.28
2023-04-16T16:36:19.391Z,99425.47
2023-04-16T16:38:52.486Z,99420.50
2023-04-16T16:41:25.483Z,99417.03
2023-04-16T16:43:59.359Z,99421.28
2023-04-16T16:46:33.926Z,99422.63
2023-04-16T16:49:09.333Z,99419.75
2023-04-16T16:51:42.645Z,99428.06
2023-04-16T16:54:16.041Z,99429.50
2023-04-16T16:56:48.792Z,99429.03
2023-04-16T16:59:21.692Z,99432.28
2023-04-16T17:01:55.940Z,99430.22
2023-04-16T17:04:28.943Z,99432.91
2023-04-16T17:07:02.064Z,99438.13
2023-04-16T17:09:34.963Z,99436.63
2023-04-16T17:12:08.100Z,99448.84
2023-04-16T17:14:43.863Z,99445.22
2023-04-16T17:17:18.397Z,99444.47
2023-04-16T17:19:51.687Z,99454.16
2023-04-16T17:22:24.729Z,99447.03
2023-04-16T17:24:57.848Z,99452.31
2023-04-16T17:27:33.731Z,99454.09
2023-04-16T17:30:10.515Z,99462.91
2023-04-16T17:32:45.216Z,99454.06
2023-04-16T17:35:18.292Z,99456.22
2023-04-16T17:37:52.809Z,99459.16
2023-04-16T17:40:26.588Z,99464.56
2023-04-16T17:42:59.727Z,99467.00
2023-04-16T17:45:36.402Z,99469.38
2023-04-16T17:48:11.099Z,99469.03
2023-04-16T17:50:44.283Z,99476.81
2023-04-16T17:53:17.313Z,99483.38
2023-04-16T17:55:56.522Z,99482.25
2023-04-16T17:58:32.915Z,99489.03
2023-04-16T18:01:06.209Z,99489.06
2023-04-16T18:03:42.039Z,99484.72
2023-04-16T18:06:14.915Z,99482.06
2023-04-16T18:08:47.797Z,99485.53
2023-04-16T18:11:21.118Z,99485.09
2023-04-16T18:13:54.123Z,99484.28
2023-04-16T18:16:27.088Z,99489.13
2023-04-16T18:19:01.400Z,99498.16
2023-04-16T18:21:35.438Z,99493.44
2023-04-16T18:24:08.920Z,99499.03
2023-04-16T18:26:42.039Z,99494.44
2023-04-16T18:29:16.857Z,99509.69
2023-04-16T18:31:50.879Z,99501.28
2023-04-16T18:34:25.562Z,99505.06
2023-04-16T18:36:58.578Z,99504.81
2023-04-16T18:39:33.884Z,99515.06
2023-04-16T18:42:06.806Z,99518.41
2023-04-16T18:44:39.889Z,99518.22
2023-04-16T18:47:12.691Z,99521.34
2023-04-16T18:49:46.925Z,99520.25
2023-04-16T18:52:19.850Z,99524.25
2023-04-16T18:54:53.097Z,99525.03
2023-04-16T18:57:26.005Z,99534.59
2023-04-16T18:59:58.893Z,99542.03
2023-04-16T19:02:32.502Z,99536.19
2023-04-16T19:05:08.418Z,99537.72
2023-04-16T19:07:41.792Z,99544.34
2023-04-16T19:10:14.869Z,99538.56
2023-04-16T19:12:47.906Z,99547.25
2023-04-16T19:15:21.062Z,99545.56
2023-04-16T19:17:54.401Z,99536.91
2023-04-16T19:20:28.928Z,99546.72
2023-04-16T19:23:01.831Z,99546.53
2023-04-16T19:25:34.607Z,99545.31
2023-04-16T19:28:07.449Z,99551.59
2023-04-16T19:30:40.530Z,99556.75
2023-04-16T19:33:13.334Z,99552.38
2023-04-16T19:35:47.743Z,99549.09
2023-04-16T19:38:21.154Z,99546.28
2023-04-16T19:40:55.384Z,99547.69
2023-04-16T19:43:30.741Z,99551.94
2023-04-16T19:46:04.177Z,99556.00
2023-04-16T19:48:37.387Z,99555.13
2023-04-16T19:51:11.902Z,99555.91
2023-04-16T19:53:44.753Z,99551.56
2023-04-16T19:56:18.062Z,99567.91
2023-04-16T19:58:50.984Z,99570.31
2023-04-16T20:01:25.095Z,99555.38
2023-04-16T20:03:58.318Z,99570.16
2023-04-16T20:06:32.772Z,99565.69
2023-04-16T20:09:06.068Z,99579.31
2023-04-16T20:11:39.078Z,99578.22
2023-04-16T20:14:12.318Z,99581.75
2023-04-16T20:16:45.161Z,99578.22
2023-04-16T20:19:18.355Z,99581.34
2023-04-16T20:21:52.621Z,99576.41
2023-04-16T20:24:26.528Z,99584.88
2023-04-16T20:26:59.813Z,99583.53
2023-04-16T20:29:32.611Z,99578.22
2023-04-16T20:32:07.399Z,99573.03
2023-04-16T20:34:40.570Z,99580.19
2023-04-16T20:37:14.655Z,99575.00
2023-04-16T20:39:50.063Z,99579.44
2023-04-16T20:42:23.119Z,99581.38
2023-04-16T20:44:56.879Z,99584.88
2023-04-16T20:47:29.785Z,99578.66
2023-04-16T20:50:02.939Z,99577.56
2023-04-16T20:52:37.392Z,99582.03
2023-04-16T20:55:10.702Z,99578.03
2023-04-16T20:57:43.421Z,99582.34
2023-04-16T21:00:17.669Z,99578.16
2023-04-16T21:02:50.654Z,99574.41
2023-04-16T21:05:26.499Z,99580.88
2023-04-16T21:08:01.009Z,99581.09
2023-04-16T21:10:34.926Z,99569.28
2023-04-16T21:13:07.738Z,99584.63
2023-04-16T21:15:41.710Z,99579.53
2023-04-16T21:18:14.765Z,99581.25
2023-04-16T21:20:47.730Z,99577.94
2023-04-16T21:23:22.111Z,99583.56
2023-04-16T21:25:56.681Z,99580.06
2023-04-16T21:28:29.980Z,99579.75
2023-04-16T21:31:02.854Z,99585.25
2023-04-16T21:33:36.159Z,99588.34
2023-04-16T21:36:10.117Z,99590.47
2023-04-16T21:38:44.690Z,99585.19
2023-04-16T21:41:17.968Z,99591.22
2023-04-16T21:43:51.050Z,99583.22
2023-04-16T21:46:25.448Z,99586.34
2023-04-16T21:48:58.258Z,99584.09
2023-04-16T21:51:31.541Z,99597.47
2023-04-16T21:54:05.960Z,99588.91
2023-04-16T21:56:39.066Z,99586.97
2023-04-16T21:59:12.247Z,99595.03
2023-04-16T22:01:45.210Z,99582.63
2023-04-16T22:04:17.975Z,99585.94
2023-04-16T22:06:55.735Z,99585.91
2023-04-16T22:09:29.936Z,99586.66
2023-04-16T22:12:03.004Z,99583.75
2023-04-16T22:14:36.083Z,99590.91
2023-04-16T22:17:09.372Z,99581.38
2023-04-16T22:19:42.914Z,99584.59
2023-04-16T22:22:15.980Z,99579.31
2023-04-16T22:24:50.076Z,99583.34
2023-04-16T22:27:23.323Z,99589.66
2023-04-16T22:29:56.179Z,99588.19
2023-04-16T22:32:30.298Z,99584.59
2023-04-16T22:35:03.489Z,99583.25
2023-04-16T22:37:36.968Z,99584.50
2023-04-16T22:40:12.184Z,99578.50
2023-04-16T22:42:45.455Z,99572.56
2023-04-16T22:45:18.480Z,99576.16
2023-04-16T22:47:51.641Z,99580.19
2023-04-16T22:50:24.417Z,99579.25
2023-04-16T22:52:57.185Z,99579.47
2023-04-16T22:55:31.555Z,99577.56
2023-04-16T22:58:04.480Z,99572.00
2023-04-16T23:00:37.551Z,99570.47
2023-04-16T23:03:10.673Z,99571.69
2023-04-16T23:05:43.519Z,99575.72
2023-04-16T23:08:16.300Z,99574.75
2023-04-16T23:10:50.479Z,99575.34
2023-04-16T23:13:23.794Z,99568.91
2023-04-16T23:15:56.615Z,99575.38
2023-04-16T23:18:29.769Z,99570.31
2023-04-16T23:21:02.671Z,99574.56
2023-04-16T23:23:35.532Z,99572.06
2023-04-16T23:26:09.606Z,99568.59
2023-04-16T23:28:42.346Z,99574.28
2023-04-16T23:31:15.760Z,99561.19
2023-04-16T23:33:48.617Z,99569.50
2023-04-16T23:36:21.457Z,99576.00
2023-04-16T23:38:54.541Z,99583.50
2023-04-16T23:41:28.719Z,99570.69
2023-04-16T23:44:01.622Z,99570.03
2023-04-16T23:46:34.997Z,99570.84
2023-04-16T23:49:07.967Z,99570.66
2023-04-16T23:51:40.667Z,99567.13
2023-04-16T23:54:13.414Z,99567.63
2023-04-16T23:56:47.595Z,99566.44
2023-04-16T23:59:20.818Z,99575.19
